sensor_id;sensor_type;location;lat;lon;timestamp;temperature;humidity
14101;DHT22;7127;49.372;8.166;2023-05-19T00:00:18;15.60;40.20
14101;DHT22;7127;49.372;8.166;2023-05-19T00:02:46;15.60;40.10
14101;DHT22;7127;49.372;8.166;2023-05-19T00:05:13;15.60;40.10
14101;DHT22;7127;49.372;8.166;2023-05-19T00:07:45;15.60;40.10
14101;DHT22;7127;49.372;8.166;2023-05-19T00:10:14;15.60;40.30
14101;DHT22;7127;49.372;8.166;2023-05-19T00:12:42;15.60;40.20
14101;DHT22;7127;49.372;8.166;2023-05-19T00:15:11;15.50;40.00
14101;DHT22;7127;49.372;8.166;2023-05-19T00:17:38;15.50;40.60
14101;DHT22;7127;49.372;8.166;2023-05-19T00:20:07;15.70;40.30
14101;DHT22;7127;49.372;8.166;2023-05-19T00:22:34;15.50;40.10
14101;DHT22;7127;49.372;8.166;2023-05-19T00:25:04;15.50;40.10
14101;DHT22;7127;49.372;8.166;2023-05-19T00:27:31;15.50;40.20
14101;DHT22;7127;49.372;8.166;2023-05-19T00:29:59;15.50;40.30
14101;DHT22;7127;49.372;8.166;2023-05-19T00:32:26;15.40;40.30
14101;DHT22;7127;49.372;8.166;2023-05-19T00:34:53;15.40;40.30
14101;DHT22;7127;49.372;8.166;2023-05-19T00:37:19;15.40;40.40
14101;DHT22;7127;49.372;8.166;2023-05-19T00:39:47;15.40;40.40
14101;DHT22;7127;49.372;8.166;2023-05-19T00:42:16;15.40;40.40
14101;DHT22;7127;49.372;8.166;2023-05-19T00:44:43;15.30;40.30
14101;DHT22;7127;49.372;8.166;2023-05-19T00:47:10;15.30;40.30
14101;DHT22;7127;49.372;8.166;2023-05-19T00:49:37;15.40;40.60
14101;DHT22;7127;49.372;8.166;2023-05-19T00:52:05;15.30;40.40
14101;DHT22;7127;49.372;8.166;2023-05-19T00:54:33;15.30;40.50
14101;DHT22;7127;49.372;8.166;2023-05-19T00:57:00;15.30;40.70
14101;DHT22;7127;49.372;8.166;2023-05-19T00:59:30;15.20;40.50
14101;DHT22;7127;49.372;8.166;2023-05-19T01:01:57;15.20;40.40
14101;DHT22;7127;49.372;8.166;2023-05-19T01:04:24;15.20;40.60
14101;DHT22;7127;49.372;8.166;2023-05-19T01:06:51;15.20;40.40
14101;DHT22;7127;49.372;8.166;2023-05-19T01:09:20;15.20;40.40
14101;DHT22;7127;49.372;8.166;2023-05-19T01:11:47;15.20;40.50
14101;DHT22;7127;49.372;8.166;2023-05-19T01:14:14;15.10;40.60
14101;DHT22;7127;49.372;8.166;2023-05-19T01:16:47;15.20;40.70
14101;DHT22;7127;49.372;8.166;2023-05-19T01:19:30;15.10;40.60
14101;DHT22;7127;49.372;8.166;2023-05-19T01:22:21;15.10;40.60
14101;DHT22;7127;49.372;8.166;2023-05-19T01:25:15;15.20;40.70
14101;DHT22;7127;49.372;8.166;2023-05-19T01:30:58;15.10;41.10
14101;DHT22;7127;49.372;8.166;2023-05-19T01:33:28;15.10;40.60
14101;DHT22;7127;49.372;8.166;2023-05-19T01:35:56;14.90;40.40
14101;DHT22;7127;49.372;8.166;2023-05-19T01:38:27;15.00;40.50
14101;DHT22;7127;49.372;8.166;2023-05-19T01:40:55;15.00;40.60
14101;DHT22;7127;49.372;8.166;2023-05-19T01:43:25;14.90;40.70
14101;DHT22;7127;49.372;8.166;2023-05-19T01:45:52;15.00;41.00
14101;DHT22;7127;49.372;8.166;2023-05-19T01:48:22;14.80;40.70
14101;DHT22;7127;49.372;8.166;2023-05-19T01:50:50;14.90;40.80
14101;DHT22;7127;49.372;8.166;2023-05-19T01:53:17;14.80;41.00
14101;DHT22;7127;49.372;8.166;2023-05-19T01:55:46;14.90;41.30
14101;DHT22;7127;49.372;8.166;2023-05-19T01:58:19;14.90;41.30
14101;DHT22;7127;49.372;8.166;2023-05-19T02:00:51;14.80;41.20
14101;DHT22;7127;49.372;8.166;2023-05-19T02:03:34;14.70;41.30
14101;DHT22;7127;49.372;8.166;2023-05-19T02:06:18;14.70;41.40
14101;DHT22;7127;49.372;8.166;2023-05-19T02:08:55;14.60;41.70
14101;DHT22;7127;49.372;8.166;2023-05-19T02:11:28;14.60;41.60
14101;DHT22;7127;49.372;8.166;2023-05-19T02:14:00;14.50;41.50
14101;DHT22;7127;49.372;8.166;2023-05-19T02:16:28;14.70;41.70
14101;DHT22;7127;49.372;8.166;2023-05-19T02:18:57;14.40;41.40
14101;DHT22;7127;49.372;8.166;2023-05-19T02:21:24;14.50;41.50
14101;DHT22;7127;49.372;8.166;2023-05-19T02:23:51;14.50;41.50
14101;DHT22;7127;49.372;8.166;2023-05-19T02:26:18;14.40;42.00
14101;DHT22;7127;49.372;8.166;2023-05-19T02:28:45;14.40;41.40
14101;DHT22;7127;49.372;8.166;2023-05-19T02:31:12;14.30;41.40
14101;DHT22;7127;49.372;8.166;2023-05-19T02:33:39;14.50;41.50
14101;DHT22;7127;49.372;8.166;2023-05-19T02:36:08;14.40;41.40
14101;DHT22;7127;49.372;8.166;2023-05-19T02:38:35;14.40;41.40
14101;DHT22;7127;49.372;8.166;2023-05-19T02:41:02;14.40;41.40
14101;DHT22;7127;49.372;8.166;2023-05-19T02:43:29;14.30;41.40
14101;DHT22;7127;49.372;8.166;2023-05-19T02:45:56;14.40;41.40
14101;DHT22;7127;49.372;8.166;2023-05-19T02:48:23;14.40;41.40
14101;DHT22;7127;49.372;8.166;2023-05-19T02:50:50;14.40;41.40
14101;DHT22;7127;49.372;8.166;2023-05-19T02:53:18;14.40;41.50
14101;DHT22;7127;49.372;8.166;2023-05-19T02:55:45;14.20;41.30
14101;DHT22;7127;49.372;8.166;2023-05-19T02:58:12;14.30;41.40
14101;DHT22;7127;49.372;8.166;2023-05-19T03:00:39;14.40;41.40
14101;DHT22;7127;49.372;8.166;2023-05-19T03:03:05;14.30;41.40
14101;DHT22;7127;49.372;8.166;2023-05-19T03:05:35;14.30;41.40
14101;DHT22;7127;49.372;8.166;2023-05-19T03:08:02;14.30;41.40
14101;DHT22;7127;49.372;8.166;2023-05-19T03:10:30;14.30;41.70
14101;DHT22;7127;49.372;8.166;2023-05-19T03:12:57;14.20;41.50
14101;DHT22;7127;49.372;8.166;2023-05-19T03:15:24;14.20;41.60
14101;DHT22;7127;49.372;8.166;2023-05-19T03:17:51;14.30;41.60
14101;DHT22;7127;49.372;8.166;2023-05-19T03:20:18;14.20;41.50
14101;DHT22;7127;49.372;8.166;2023-05-19T03:22:45;14.20;41.60
14101;DHT22;7127;49.372;8.166;2023-05-19T03:25:12;14.20;41.80
14101;DHT22;7127;49.372;8.166;2023-05-19T03:27:41;14.20;41.70
14101;DHT22;7127;49.372;8.166;2023-05-19T03:30:09;14.10;41.80
14101;DHT22;7127;49.372;8.166;2023-05-19T03:32:36;14.20;42.20
14101;DHT22;7127;49.372;8.166;2023-05-19T03:35:03;14.10;41.80
14101;DHT22;7127;49.372;8.166;2023-05-19T03:37:30;14.10;42.00
14101;DHT22;7127;49.372;8.166;2023-05-19T03:39:57;14.10;41.90
14101;DHT22;7127;49.372;8.166;2023-05-19T03:42:24;14.00;41.80
14101;DHT22;7127;49.372;8.166;2023-05-19T03:44:52;14.10;42.00
14101;DHT22;7127;49.372;8.166;2023-05-19T03:47:19;14.10;41.90
14101;DHT22;7127;49.372;8.166;2023-05-19T03:49:46;14.10;41.90
14101;DHT22;7127;49.372;8.166;2023-05-19T03:52:13;14.10;41.90
14101;DHT22;7127;49.372;8.166;2023-05-19T03:54:40;14.10;42.00
14101;DHT22;7127;49.372;8.166;2023-05-19T03:57:08;14.10;41.90
14101;DHT22;7127;49.372;8.166;2023-05-19T03:59:35;14.00;41.90
14101;DHT22;7127;49.372;8.166;2023-05-19T04:02:04;14.10;42.00
14101;DHT22;7127;49.372;8.166;2023-05-19T04:04:31;14.10;42.20
14101;DHT22;7127;49.372;8.166;2023-05-19T04:06:58;14.10;42.00
14101;DHT22;7127;49.372;8.166;2023-05-19T04:09:25;14.10;42.20
14101;DHT22;7127;49.372;8.166;2023-05-19T04:11:55;13.90;42.40
14101;DHT22;7127;49.372;8.166;2023-05-19T04:14:22;14.00;42.20
14101;DHT22;7127;49.372;8.166;2023-05-19T04:16:49;14.10;42.40
14101;DHT22;7127;49.372;8.166;2023-05-19T04:19:18;14.10;42.80
14101;DHT22;7127;49.372;8.166;2023-05-19T04:21:44;14.10;42.60
14101;DHT22;7127;49.372;8.166;2023-05-19T04:24:11;14.10;42.70
14101;DHT22;7127;49.372;8.166;2023-05-19T04:26:38;14.00;42.50
14101;DHT22;7127;49.372;8.166;2023-05-19T04:29:06;14.10;42.80
14101;DHT22;7127;49.372;8.166;2023-05-19T04:31:35;14.20;42.70
14101;DHT22;7127;49.372;8.166;2023-05-19T04:34:02;14.10;42.60
14101;DHT22;7127;49.372;8.166;2023-05-19T04:36:30;14.10;42.80
14101;DHT22;7127;49.372;8.166;2023-05-19T04:38:58;14.10;42.70
14101;DHT22;7127;49.372;8.166;2023-05-19T04:41:26;14.10;42.70
14101;DHT22;7127;49.372;8.166;2023-05-19T04:43:53;14.10;42.70
14101;DHT22;7127;49.372;8.166;2023-05-19T04:46:22;14.10;42.70
14101;DHT22;7127;49.372;8.166;2023-05-19T04:48:50;14.10;42.80
14101;DHT22;7127;49.372;8.166;2023-05-19T04:51:17;14.20;42.80
14101;DHT22;7127;49.372;8.166;2023-05-19T04:53:45;14.20;42.80
14101;DHT22;7127;49.372;8.166;2023-05-19T04:56:13;14.20;43.00
14101;DHT22;7127;49.372;8.166;2023-05-19T04:58:40;14.20;42.80
14101;DHT22;7127;49.372;8.166;2023-05-19T05:01:09;14.20;43.10
14101;DHT22;7127;49.372;8.166;2023-05-19T05:03:38;14.30;42.90
14101;DHT22;7127;49.372;8.166;2023-05-19T05:06:05;14.30;43.10
14101;DHT22;7127;49.372;8.166;2023-05-19T05:08:32;14.30;43.20
14101;DHT22;7127;49.372;8.166;2023-05-19T05:11:01;14.30;43.10
14101;DHT22;7127;49.372;8.166;2023-05-19T05:13:29;14.30;43.10
14101;DHT22;7127;49.372;8.166;2023-05-19T05:15:56;14.30;43.10
14101;DHT22;7127;49.372;8.166;2023-05-19T05:18:24;14.30;43.20
14101;DHT22;7127;49.372;8.166;2023-05-19T05:20:52;14.30;43.10
14101;DHT22;7127;49.372;8.166;2023-05-19T05:23:26;14.40;43.30
14101;DHT22;7127;49.372;8.166;2023-05-19T05:26:22;14.40;43.30
14101;DHT22;7127;49.372;8.166;2023-05-19T05:28:58;14.40;43.40
14101;DHT22;7127;49.372;8.166;2023-05-19T05:31:24;15.00;43.70
14101;DHT22;7127;49.372;8.166;2023-05-19T05:33:51;14.50;43.50
14101;DHT22;7127;49.372;8.166;2023-05-19T05:36:18;14.30;43.40
14101;DHT22;7127;49.372;8.166;2023-05-19T05:38:45;14.50;43.70
14101;DHT22;7127;49.372;8.166;2023-05-19T05:41:14;14.50;43.90
14101;DHT22;7127;49.372;8.166;2023-05-19T05:43:41;14.50;43.70
14101;DHT22;7127;49.372;8.166;2023-05-19T05:46:08;14.50;43.80
14101;DHT22;7127;49.372;8.166;2023-05-19T05:48:35;14.60;43.80
14101;DHT22;7127;49.372;8.166;2023-05-19T05:51:03;14.50;43.90
14101;DHT22;7127;49.372;8.166;2023-05-19T05:53:33;14.60;43.90
14101;DHT22;7127;49.372;8.166;2023-05-19T05:56:03;14.60;43.80
14101;DHT22;7127;49.372;8.166;2023-05-19T05:58:31;14.70;43.90
14101;DHT22;7127;49.372;8.166;2023-05-19T06:01:00;14.70;43.80
14101;DHT22;7127;49.372;8.166;2023-05-19T06:03:27;14.80;43.80
14101;DHT22;7127;49.372;8.166;2023-05-19T06:05:54;14.80;43.80
14101;DHT22;7127;49.372;8.166;2023-05-19T06:08:21;14.90;43.80
14101;DHT22;7127;49.372;8.166;2023-05-19T06:10:48;15.00;43.70
14101;DHT22;7127;49.372;8.166;2023-05-19T06:13:14;15.00;43.80
14101;DHT22;7127;49.372;8.166;2023-05-19T06:15:47;15.10;43.70
14101;DHT22;7127;49.372;8.166;2023-05-19T06:18:14;15.10;44.40
14101;DHT22;7127;49.372;8.166;2023-05-19T06:20:42;15.10;43.50
14101;DHT22;7127;49.372;8.166;2023-05-19T06:23:09;15.20;43.70
14101;DHT22;7127;49.372;8.166;2023-05-19T06:25:36;15.30;43.80
14101;DHT22;7127;49.372;8.166;2023-05-19T06:28:03;15.40;43.90
14101;DHT22;7127;49.372;8.166;2023-05-19T06:30:29;15.40;44.00
14101;DHT22;7127;49.372;8.166;2023-05-19T06:32:58;15.50;44.10
14101;DHT22;7127;49.372;8.166;2023-05-19T06:35:25;15.50;43.90
14101;DHT22;7127;49.372;8.166;2023-05-19T06:37:52;15.60;43.70
14101;DHT22;7127;49.372;8.166;2023-05-19T06:40:20;15.70;43.40
14101;DHT22;7127;49.372;8.166;2023-05-19T06:42:47;16.00;43.50
14101;DHT22;7127;49.372;8.166;2023-05-19T06:45:14;15.90;43.40
14101;DHT22;7127;49.372;8.166;2023-05-19T06:47:41;16.00;43.10
14101;DHT22;7127;49.372;8.166;2023-05-19T06:50:10;16.10;43.10
14101;DHT22;7127;49.372;8.166;2023-05-19T06:52:37;16.20;42.90
14101;DHT22;7127;49.372;8.166;2023-05-19T06:55:05;16.30;43.00
14101;DHT22;7127;49.372;8.166;2023-05-19T06:57:32;16.30;43.00
14101;DHT22;7127;49.372;8.166;2023-05-19T06:59:59;16.40;43.10
14101;DHT22;7127;49.372;8.166;2023-05-19T07:02:26;16.50;42.70
14101;DHT22;7127;49.372;8.166;2023-05-19T07:04:53;16.50;42.60
14101;DHT22;7127;49.372;8.166;2023-05-19T07:07:21;16.60;42.70
14101;DHT22;7127;49.372;8.166;2023-05-19T07:09:48;16.70;42.50
14101;DHT22;7127;49.372;8.166;2023-05-19T07:12:15;16.70;42.50
14101;DHT22;7127;49.372;8.166;2023-05-19T07:14:42;16.70;43.10
14101;DHT22;7127;49.372;8.166;2023-05-19T07:17:09;16.80;42.40
14101;DHT22;7127;49.372;8.166;2023-05-19T07:19:36;16.80;42.20
14101;DHT22;7127;49.372;8.166;2023-05-19T07:22:03;16.80;42.20
14101;DHT22;7127;49.372;8.166;2023-05-19T07:24:31;17.00;42.40
14101;DHT22;7127;49.372;8.166;2023-05-19T07:26:58;17.00;42.00
14101;DHT22;7127;49.372;8.166;2023-05-19T07:29:25;17.00;42.30
14101;DHT22;7127;49.372;8.166;2023-05-19T07:31:52;17.10;42.40
14101;DHT22;7127;49.372;8.166;2023-05-19T07:34:22;17.20;42.50
14101;DHT22;7127;49.372;8.166;2023-05-19T07:36:49;17.10;42.30
14101;DHT22;7127;49.372;8.166;2023-05-19T07:39:17;17.20;42.30
14101;DHT22;7127;49.372;8.166;2023-05-19T07:41:45;17.20;42.20
14101;DHT22;7127;49.372;8.166;2023-05-19T07:44:17;17.30;42.30
14101;DHT22;7127;49.372;8.166;2023-05-19T07:46:44;17.30;42.30
14101;DHT22;7127;49.372;8.166;2023-05-19T07:49:10;17.40;42.30
14101;DHT22;7127;49.372;8.166;2023-05-19T07:51:37;17.30;42.20
14101;DHT22;7127;49.372;8.166;2023-05-19T07:54:06;17.40;42.30
14101;DHT22;7127;49.372;8.166;2023-05-19T07:56:33;17.50;42.40
14101;DHT22;7127;49.372;8.166;2023-05-19T07:59:02;17.50;42.30
14101;DHT22;7127;49.372;8.166;2023-05-19T08:01:29;17.50;42.30
14101;DHT22;7127;49.372;8.166;2023-05-19T08:03:56;17.60;42.40
14101;DHT22;7127;49.372;8.166;2023-05-19T08:06:23;17.50;42.30
14101;DHT22;7127;49.372;8.166;2023-05-19T08:08:50;17.40;42.20
14101;DHT22;7127;49.372;8.166;2023-05-19T08:11:18;17.60;42.40
14101;DHT22;7127;49.372;8.166;2023-05-19T08:13:45;17.60;41.90
14101;DHT22;7127;49.372;8.166;2023-05-19T08:16:15;17.70;42.10
14101;DHT22;7127;49.372;8.166;2023-05-19T08:18:41;17.70;42.90
14101;DHT22;7127;49.372;8.166;2023-05-19T08:21:08;17.70;42.30
14101;DHT22;7127;49.372;8.166;2023-05-19T08:23:36;17.70;42.30
14101;DHT22;7127;49.372;8.166;2023-05-19T08:26:04;17.90;42.40
14101;DHT22;7127;49.372;8.166;2023-05-19T08:28:31;17.80;42.10
14101;DHT22;7127;49.372;8.166;2023-05-19T08:30:58;17.90;42.40
14101;DHT22;7127;49.372;8.166;2023-05-19T08:33:27;18.00;42.50
14101;DHT22;7127;49.372;8.166;2023-05-19T08:35:55;17.90;42.40
14101;DHT22;7127;49.372;8.166;2023-05-19T08:38:23;18.10;42.50
14101;DHT22;7127;49.372;8.166;2023-05-19T08:40:50;18.20;42.50
14101;DHT22;7127;49.372;8.166;2023-05-19T08:43:19;18.20;42.40
14101;DHT22;7127;49.372;8.166;2023-05-19T08:45:50;18.20;42.30
14101;DHT22;7127;49.372;8.166;2023-05-19T08:48:19;18.20;42.60
14101;DHT22;7127;49.372;8.166;2023-05-19T08:50:58;18.30;42.30
14101;DHT22;7127;49.372;8.166;2023-05-19T08:53:35;18.30;42.10
14101;DHT22;7127;49.372;8.166;2023-05-19T08:56:07;18.30;42.10
14101;DHT22;7127;49.372;8.166;2023-05-19T08:58:38;18.30;42.00
14101;DHT22;7127;49.372;8.166;2023-05-19T09:01:06;18.40;42.10
14101;DHT22;7127;49.372;8.166;2023-05-19T09:03:34;18.50;42.30
14101;DHT22;7127;49.372;8.166;2023-05-19T09:06:06;18.40;42.30
14101;DHT22;7127;49.372;8.166;2023-05-19T09:08:33;18.50;42.40
14101;DHT22;7127;49.372;8.166;2023-05-19T09:11:00;18.50;42.30
14101;DHT22;7127;49.372;8.166;2023-05-19T09:13:30;18.60;42.30
14101;DHT22;7127;49.372;8.166;2023-05-19T09:15:57;18.70;42.40
14101;DHT22;7127;49.372;8.166;2023-05-19T09:18:25;18.70;42.40
14101;DHT22;7127;49.372;8.166;2023-05-19T09:20:55;18.70;42.40
14101;DHT22;7127;49.372;8.166;2023-05-19T09:23:29;18.80;42.40
14101;DHT22;7127;49.372;8.166;2023-05-19T09:26:01;18.90;42.40
14101;DHT22;7127;49.372;8.166;2023-05-19T09:28:31;19.00;42.30
14101;DHT22;7127;49.372;8.166;2023-05-19T09:31:01;19.00;41.90
14101;DHT22;7127;49.372;8.166;2023-05-19T09:33:31;19.10;41.60
14101;DHT22;7127;49.372;8.166;2023-05-19T09:35:58;19.20;41.90
14101;DHT22;7127;49.372;8.166;2023-05-19T09:38:29;19.20;42.00
14101;DHT22;7127;49.372;8.166;2023-05-19T09:40:57;19.40;42.20
14101;DHT22;7127;49.372;8.166;2023-05-19T09:43:27;19.20;42.10
14101;DHT22;7127;49.372;8.166;2023-05-19T09:45:57;19.50;41.80
14101;DHT22;7127;49.372;8.166;2023-05-19T09:48:25;19.40;41.40
14101;DHT22;7127;49.372;8.166;2023-05-19T09:50:53;19.40;41.40
14101;DHT22;7127;49.372;8.166;2023-05-19T09:53:21;19.50;41.30
14101;DHT22;7127;49.372;8.166;2023-05-19T09:55:54;19.50;41.60
14101;DHT22;7127;49.372;8.166;2023-05-19T09:58:23;19.60;41.40
14101;DHT22;7127;49.372;8.166;2023-05-19T10:00:51;19.70;41.40
14101;DHT22;7127;49.372;8.166;2023-05-19T10:03:20;19.70;41.90
14101;DHT22;7127;49.372;8.166;2023-05-19T10:05:48;19.80;41.10
14101;DHT22;7127;49.372;8.166;2023-05-19T10:08:16;19.80;41.10
14101;DHT22;7127;49.372;8.166;2023-05-19T10:10:45;20.00;40.40
14101;DHT22;7127;49.372;8.166;2023-05-19T10:13:15;20.00;40.40
14101;DHT22;7127;49.372;8.166;2023-05-19T10:15:42;20.00;40.60
14101;DHT22;7127;49.372;8.166;2023-05-19T10:18:11;20.10;40.60
14101;DHT22;7127;49.372;8.166;2023-05-19T10:20:39;20.10;40.50
14101;DHT22;7127;49.372;8.166;2023-05-19T10:23:07;20.20;40.20
14101;DHT22;7127;49.372;8.166;2023-05-19T10:25:34;20.30;40.40
14101;DHT22;7127;49.372;8.166;2023-05-19T10:28:15;20.30;39.70
14101;DHT22;7127;49.372;8.166;2023-05-19T10:31:01;20.40;39.80
14101;DHT22;7127;49.372;8.166;2023-05-19T10:33:55;20.40;39.40
14101;DHT22;7127;49.372;8.166;2023-05-19T10:36:46;20.50;39.00
14101;DHT22;7127;49.372;8.166;2023-05-19T10:39:19;20.30;39.40
14101;DHT22;7127;49.372;8.166;2023-05-19T10:41:57;20.70;39.70
14101;DHT22;7127;49.372;8.166;2023-05-19T10:56:27;21.30;39.30
14101;DHT22;7127;49.372;8.166;2023-05-19T10:58:55;21.40;39.10
14101;DHT22;7127;49.372;8.166;2023-05-19T11:01:30;21.50;38.90
14101;DHT22;7127;49.372;8.166;2023-05-19T11:04:03;21.60;38.40
14101;DHT22;7127;49.372;8.166;2023-05-19T11:06:31;21.60;37.90
14101;DHT22;7127;49.372;8.166;2023-05-19T11:09:08;21.70;38.30
14101;DHT22;7127;49.372;8.166;2023-05-19T11:11:46;21.70;38.10
14101;DHT22;7127;49.372;8.166;2023-05-19T11:14:15;21.70;37.90
14101;DHT22;7127;49.372;8.166;2023-05-19T11:16:45;21.70;37.20
14101;DHT22;7127;49.372;8.166;2023-05-19T11:19:25;21.70;36.80
14101;DHT22;7127;49.372;8.166;2023-05-19T11:22:23;21.70;37.00
14101;DHT22;7127;49.372;8.166;2023-05-19T11:24:58;21.70;37.30
14101;DHT22;7127;49.372;8.166;2023-05-19T11:28:04;21.70;37.90
14101;DHT22;7127;49.372;8.166;2023-05-19T11:30:53;21.80;37.80
14101;DHT22;7127;49.372;8.166;2023-05-19T11:34:31;21.80;37.60
14101;DHT22;7127;49.372;8.166;2023-05-19T11:37:25;22.00;37.70
14101;DHT22;7127;49.372;8.166;2023-05-19T11:40:13;21.90;37.30
14101;DHT22;7127;49.372;8.166;2023-05-19T11:42:55;22.10;37.00
14101;DHT22;7127;49.372;8.166;2023-05-19T11:48:40;22.20;36.30
14101;DHT22;7127;49.372;8.166;2023-05-19T11:51:07;22.20;36.80
14101;DHT22;7127;49.372;8.166;2023-05-19T11:53:34;22.30;36.50
14101;DHT22;7127;49.372;8.166;2023-05-19T11:56:03;22.30;36.10
14101;DHT22;7127;49.372;8.166;2023-05-19T11:58:32;22.30;36.40
14101;DHT22;7127;49.372;8.166;2023-05-19T12:01:03;22.30;36.50
14101;DHT22;7127;49.372;8.166;2023-05-19T12:03:38;22.40;36.80
14101;DHT22;7127;49.372;8.166;2023-05-19T12:06:05;22.40;36.80
14101;DHT22;7127;49.372;8.166;2023-05-19T12:08:34;22.50;36.90
14101;DHT22;7127;49.372;8.166;2023-05-19T12:11:03;22.60;36.70
14101;DHT22;7127;49.372;8.166;2023-05-19T12:13:32;22.60;36.50
14101;DHT22;7127;49.372;8.166;2023-05-19T12:15:59;22.70;36.40
14101;DHT22;7127;49.372;8.166;2023-05-19T12:18:28;22.70;36.20
14101;DHT22;7127;49.372;8.166;2023-05-19T12:20:57;22.70;36.20
14101;DHT22;7127;49.372;8.166;2023-05-19T12:23:24;22.70;36.00
14101;DHT22;7127;49.372;8.166;2023-05-19T12:25:52;22.80;36.40
14101;DHT22;7127;49.372;8.166;2023-05-19T12:28:19;22.70;36.40
14101;DHT22;7127;49.372;8.166;2023-05-19T12:30:49;22.80;36.40
14101;DHT22;7127;49.372;8.166;2023-05-19T12:33:17;22.80;36.30
14101;DHT22;7127;49.372;8.166;2023-05-19T12:35:45;22.80;36.10
14101;DHT22;7127;49.372;8.166;2023-05-19T12:38:13;22.90;36.30
14101;DHT22;7127;49.372;8.166;2023-05-19T12:40:41;22.90;36.20
14101;DHT22;7127;49.372;8.166;2023-05-19T12:43:18;22.90;36.00
14101;DHT22;7127;49.372;8.166;2023-05-19T12:45:45;23.00;36.20
14101;DHT22;7127;49.372;8.166;2023-05-19T12:48:14;23.00;36.10
14101;DHT22;7127;49.372;8.166;2023-05-19T12:50:50;23.10;36.00
14101;DHT22;7127;49.372;8.166;2023-05-19T12:58:42;23.00;36.00
14101;DHT22;7127;49.372;8.166;2023-05-19T13:01:15;23.00;35.90
14101;DHT22;7127;49.372;8.166;2023-05-19T13:03:44;23.00;35.80
14101;DHT22;7127;49.372;8.166;2023-05-19T13:06:11;23.00;35.80
14101;DHT22;7127;49.372;8.166;2023-05-19T13:08:39;23.00;35.80
14101;DHT22;7127;49.372;8.166;2023-05-19T13:11:07;23.10;35.80
14101;DHT22;7127;49.372;8.166;2023-05-19T13:13:34;23.10;36.00
14101;DHT22;7127;49.372;8.166;2023-05-19T13:16:01;23.20;36.00
14101;DHT22;7127;49.372;8.166;2023-05-19T13:18:28;23.20;35.90
14101;DHT22;7127;49.372;8.166;2023-05-19T13:20:58;23.30;35.50
14101;DHT22;7127;49.372;8.166;2023-05-19T13:23:25;23.30;35.10
14101;DHT22;7127;49.372;8.166;2023-05-19T13:25:52;23.30;35.00
14101;DHT22;7127;49.372;8.166;2023-05-19T13:28:19;23.30;35.10
14101;DHT22;7127;49.372;8.166;2023-05-19T13:30:46;23.40;35.20
14101;DHT22;7127;49.372;8.166;2023-05-19T13:33:14;23.30;34.80
14101;DHT22;7127;49.372;8.166;2023-05-19T13:35:41;23.30;34.80
14101;DHT22;7127;49.372;8.166;2023-05-19T13:38:10;23.30;35.10
14101;DHT22;7127;49.372;8.166;2023-05-19T13:40:37;23.30;35.10
14101;DHT22;7127;49.372;8.166;2023-05-19T13:43:04;23.30;35.10
14101;DHT22;7127;49.372;8.166;2023-05-19T13:45:32;23.50;35.20
14101;DHT22;7127;49.372;8.166;2023-05-19T13:47:59;23.40;35.10
14101;DHT22;7127;49.372;8.166;2023-05-19T13:50:26;23.40;35.00
14101;DHT22;7127;49.372;8.166;2023-05-19T13:52:53;23.40;34.80
14101;DHT22;7127;49.372;8.166;2023-05-19T13:55:22;23.30;34.70
14101;DHT22;7127;49.372;8.166;2023-05-19T13:57:50;23.40;34.70
14101;DHT22;7127;49.372;8.166;2023-05-19T14:00:18;23.40;34.80
14101;DHT22;7127;49.372;8.166;2023-05-19T14:02:46;23.50;34.90
14101;DHT22;7127;49.372;8.166;2023-05-19T14:05:14;23.40;34.80
14101;DHT22;7127;49.372;8.166;2023-05-19T14:07:42;23.40;34.80
14101;DHT22;7127;49.372;8.166;2023-05-19T14:10:10;23.40;34.80
14101;DHT22;7127;49.372;8.166;2023-05-19T14:12:39;23.40;34.80
14101;DHT22;7127;49.372;8.166;2023-05-19T14:15:08;23.30;34.70
14101;DHT22;7127;49.372;8.166;2023-05-19T14:17:35;23.30;34.60
14101;DHT22;7127;49.372;8.166;2023-05-19T14:20:06;23.20;34.60
14101;DHT22;7127;49.372;8.166;2023-05-19T14:22:34;23.20;34.70
14101;DHT22;7127;49.372;8.166;2023-05-19T14:25:01;23.10;34.70
14101;DHT22;7127;49.372;8.166;2023-05-19T14:27:29;23.10;34.60
14101;DHT22;7127;49.372;8.166;2023-05-19T14:29:58;23.00;34.50
14101;DHT22;7127;49.372;8.166;2023-05-19T14:32:25;23.00;34.60
14101;DHT22;7127;49.372;8.166;2023-05-19T14:34:52;22.90;34.60
14101;DHT22;7127;49.372;8.166;2023-05-19T14:37:19;22.90;34.70
14101;DHT22;7127;49.372;8.166;2023-05-19T14:39:46;22.80;34.70
14101;DHT22;7127;49.372;8.166;2023-05-19T14:42:13;22.70;34.70
14101;DHT22;7127;49.372;8.166;2023-05-19T14:44:40;22.70;34.90
14101;DHT22;7127;49.372;8.166;2023-05-19T14:47:08;22.60;34.90
14101;DHT22;7127;49.372;8.166;2023-05-19T14:49:36;22.60;35.10
14101;DHT22;7127;49.372;8.166;2023-05-19T14:52:04;22.50;35.10
14101;DHT22;7127;49.372;8.166;2023-05-19T14:54:31;22.50;35.20
14101;DHT22;7127;49.372;8.166;2023-05-19T14:56:58;22.40;35.30
14101;DHT22;7127;49.372;8.166;2023-05-19T14:59:26;22.40;35.40
14101;DHT22;7127;49.372;8.166;2023-05-19T15:01:54;22.40;35.50
14101;DHT22;7127;49.372;8.166;2023-05-19T15:04:22;22.40;35.60
14101;DHT22;7127;49.372;8.166;2023-05-19T15:06:49;22.40;35.70
14101;DHT22;7127;49.372;8.166;2023-05-19T15:09:16;22.50;35.90
14101;DHT22;7127;49.372;8.166;2023-05-19T15:11:43;22.30;35.70
14101;DHT22;7127;49.372;8.166;2023-05-19T15:14:10;22.30;36.00
14101;DHT22;7127;49.372;8.166;2023-05-19T15:16:37;22.30;36.00
14101;DHT22;7127;49.372;8.166;2023-05-19T15:19:04;22.40;36.10
14101;DHT22;7127;49.372;8.166;2023-05-19T15:21:32;22.40;36.10
14101;DHT22;7127;49.372;8.166;2023-05-19T15:23:59;22.40;36.00
14101;DHT22;7127;49.372;8.166;2023-05-19T15:26:27;22.50;36.10
14101;DHT22;7127;49.372;8.166;2023-05-19T15:28:54;22.40;35.90
14101;DHT22;7127;49.372;8.166;2023-05-19T15:31:21;22.40;35.90
14101;DHT22;7127;49.372;8.166;2023-05-19T15:33:49;22.40;35.90
14101;DHT22;7127;49.372;8.166;2023-05-19T15:36:16;22.50;36.00
14101;DHT22;7127;49.372;8.166;2023-05-19T15:38:44;22.50;36.10
14101;DHT22;7127;49.372;8.166;2023-05-19T15:41:11;22.50;36.00
14101;DHT22;7127;49.372;8.166;2023-05-19T15:43:38;22.50;36.00
14101;DHT22;7127;49.372;8.166;2023-05-19T15:46:06;22.60;36.10
14101;DHT22;7127;49.372;8.166;2023-05-19T15:48:33;22.50;35.90
14101;DHT22;7127;49.372;8.166;2023-05-19T15:51:01;22.60;36.10
14101;DHT22;7127;49.372;8.166;2023-05-19T15:53:28;22.60;36.10
14101;DHT22;7127;49.372;8.166;2023-05-19T15:55:57;22.70;36.10
14101;DHT22;7127;49.372;8.166;2023-05-19T15:58:24;22.60;36.10
14101;DHT22;7127;49.372;8.166;2023-05-19T16:00:52;22.60;36.00
14101;DHT22;7127;49.372;8.166;2023-05-19T16:03:25;22.60;36.00
14101;DHT22;7127;49.372;8.166;2023-05-19T16:05:52;22.70;36.10
14101;DHT22;7127;49.372;8.166;2023-05-19T16:08:19;22.60;35.90
14101;DHT22;7127;49.372;8.166;2023-05-19T16:10:46;22.60;35.90
14101;DHT22;7127;49.372;8.166;2023-05-19T16:13:15;22.60;35.90
14101;DHT22;7127;49.372;8.166;2023-05-19T16:15:42;22.60;36.00
14101;DHT22;7127;49.372;8.166;2023-05-19T16:18:09;22.50;35.90
14101;DHT22;7127;49.372;8.166;2023-05-19T16:20:37;22.60;36.00